sensor_id;sensor_type;location;lat;lon;timestamp;P1;durP1;ratioP1;P2;durP2;ratioP2
41633;SDS011;37274;51.150;4.808;2022-07-29T00:02:15;1.17;;;0.65;;
41633;SDS011;37274;51.150;4.808;2022-07-29T00:04:41;0.20;;;0.20;;
41633;SDS011;37274;51.150;4.808;2022-07-29T00:07:08;0.30;;;0.30;;
41633;SDS011;37274;51.150;4.808;2022-07-29T00:09:36;0.75;;;0.30;;
41633;SDS011;37274;51.150;4.808;2022-07-29T00:12:16;0.50;;;0.50;;
41633;SDS011;37274;51.150;4.808;2022-07-29T00:14:54;1.40;;;0.30;;
41633;SDS011;37274;51.150;4.808;2022-07-29T00:17:22;0.30;;;0.20;;
41633;SDS011;37274;51.150;4.808;2022-07-29T00:19:50;1.05;;;0.30;;
41633;SDS011;37274;51.150;4.808;2022-07-29T00:22:17;0.93;;;0.60;;
41633;SDS011;37274;51.150;4.808;2022-07-29T00:24:43;0.20;;;0.20;;
41633;SDS011;37274;51.150;4.808;2022-07-29T00:27:10;0.50;;;0.30;;
41633;SDS011;37274;51.150;4.808;2022-07-29T00:29:37;1.65;;;0.30;;
41633;SDS011;37274;51.150;4.808;2022-07-29T00:32:04;0.73;;;0.30;;
41633;SDS011;37274;51.150;4.808;2022-07-29T00:34:31;0.93;;;0.20;;
41633;SDS011;37274;51.150;4.808;2022-07-29T00:37:16;0.50;;;0.20;;
41633;SDS011;37274;51.150;4.808;2022-07-29T00:39:43;0.28;;;0.20;;
41633;SDS011;37274;51.150;4.808;2022-07-29T00:42:10;0.52;;;0.30;;
41633;SDS011;37274;51.150;4.808;2022-07-29T00:44:40;0.95;;;0.20;;
41633;SDS011;37274;51.150;4.808;2022-07-29T00:47:08;0.50;;;0.20;;
41633;SDS011;37274;51.150;4.808;2022-07-29T00:49:36;0.28;;;0.20;;
41633;SDS011;37274;51.150;4.808;2022-07-29T00:52:03;0.50;;;0.20;;
41633;SDS011;37274;51.150;4.808;2022-07-29T00:54:32;0.52;;;0.25;;
41633;SDS011;37274;51.150;4.808;2022-07-29T00:57:00;0.50;;;0.50;;
41633;SDS011;37274;51.150;4.808;2022-07-29T00:59:27;0.30;;;0.20;;
41633;SDS011;37274;51.150;4.808;2022-07-29T01:02:01;0.75;;;0.22;;
41633;SDS011;37274;51.150;4.808;2022-07-29T01:04:30;0.30;;;0.20;;
41633;SDS011;37274;51.150;4.808;2022-07-29T01:06:58;1.17;;;0.25;;
41633;SDS011;37274;51.150;4.808;2022-07-29T01:09:27;0.75;;;0.30;;
41633;SDS011;37274;51.150;4.808;2022-07-29T01:12:16;0.45;;;0.20;;
41633;SDS011;37274;51.150;4.808;2022-07-29T01:14:45;0.43;;;0.30;;
41633;SDS011;37274;51.150;4.808;2022-07-29T01:19:51;0.50;;;0.30;;
41633;SDS011;37274;51.150;4.808;2022-07-29T01:25:15;0.50;;;0.50;;
41633;SDS011;37274;51.150;4.808;2022-07-29T01:33:23;0.40;;;0.22;;
41633;SDS011;37274;51.150;4.808;2022-07-29T01:36:11;0.20;;;0.10;;
41633;SDS011;37274;51.150;4.808;2022-07-29T01:38:41;0.80;;;0.38;;
41633;SDS011;37274;51.150;4.808;2022-07-29T01:41:09;0.60;;;0.28;;
41633;SDS011;37274;51.150;4.808;2022-07-29T01:43:59;0.10;;;0.10;;
41633;SDS011;37274;51.150;4.808;2022-07-29T01:46:33;0.65;;;0.40;;
41633;SDS011;37274;51.150;4.808;2022-07-29T01:49:04;0.70;;;0.30;;
41633;SDS011;37274;51.150;4.808;2022-07-29T01:54:16;0.60;;;0.20;;
41633;SDS011;37274;51.150;4.808;2022-07-29T01:56:47;0.43;;;0.20;;
41633;SDS011;37274;51.150;4.808;2022-07-29T01:59:15;0.20;;;0.20;;
41633;SDS011;37274;51.150;4.808;2022-07-29T02:01:42;0.50;;;0.17;;
41633;SDS011;37274;51.150;4.808;2022-07-29T02:04:10;0.20;;;0.20;;
41633;SDS011;37274;51.150;4.808;2022-07-29T02:06:55;0.20;;;0.20;;
41633;SDS011;37274;51.150;4.808;2022-07-29T02:09:24;1.88;;;0.20;;
41633;SDS011;37274;51.150;4.808;2022-07-29T02:11:52;0.10;;;0.10;;
41633;SDS011;37274;51.150;4.808;2022-07-29T02:14:20;0.40;;;0.10;;
41633;SDS011;37274;51.150;4.808;2022-07-29T02:16:48;0.50;;;0.10;;
41633;SDS011;37274;51.150;4.808;2022-07-29T02:19:17;1.17;;;0.40;;
41633;SDS011;37274;51.150;4.808;2022-07-29T02:21:45;0.80;;;0.13;;
41633;SDS011;37274;51.150;4.808;2022-07-29T02:24:12;0.38;;;0.30;;
41633;SDS011;37274;51.150;4.808;2022-07-29T02:26:41;1.08;;;0.15;;
41633;SDS011;37274;51.150;4.808;2022-07-29T02:29:09;0.10;;;0.10;;
41633;SDS011;37274;51.150;4.808;2022-07-29T02:31:36;0.57;;;0.25;;
41633;SDS011;37274;51.150;4.808;2022-07-29T02:34:07;0.82;;;0.20;;
41633;SDS011;37274;51.150;4.808;2022-07-29T02:36:35;0.22;;;0.20;;
41633;SDS011;37274;51.150;4.808;2022-07-29T02:39:02;0.15;;;0.15;;
41633;SDS011;37274;51.150;4.808;2022-07-29T02:41:35;0.32;;;0.20;;
41633;SDS011;37274;51.150;4.808;2022-07-29T02:44:12;7.88;;;0.88;;
41633;SDS011;37274;51.150;4.808;2022-07-29T02:46:54;0.50;;;0.30;;
41633;SDS011;37274;51.150;4.808;2022-07-29T02:52:01;1.35;;;0.30;;
41633;SDS011;37274;51.150;4.808;2022-07-29T02:54:47;1.63;;;0.20;;
41633;SDS011;37274;51.150;4.808;2022-07-29T02:57:21;0.20;;;0.20;;
41633;SDS011;37274;51.150;4.808;2022-07-29T02:59:58;1.58;;;0.20;;
41633;SDS011;37274;51.150;4.808;2022-07-29T03:02:25;0.75;;;0.20;;
41633;SDS011;37274;51.150;4.808;2022-07-29T03:04:53;0.60;;;0.40;;
41633;SDS011;37274;51.150;4.808;2022-07-29T03:07:23;0.57;;;0.25;;
41633;SDS011;37274;51.150;4.808;2022-07-29T03:09:50;0.30;;;0.13;;
41633;SDS011;37274;51.150;4.808;2022-07-29T03:12:17;0.77;;;0.20;;
41633;SDS011;37274;51.150;4.808;2022-07-29T03:14:43;0.63;;;0.22;;
41633;SDS011;37274;51.150;4.808;2022-07-29T03:17:11;0.30;;;0.20;;
41633;SDS011;37274;51.150;4.808;2022-07-29T03:19:38;1.00;;;0.30;;
41633;SDS011;37274;51.150;4.808;2022-07-29T03:22:05;0.80;;;0.50;;
41633;SDS011;37274;51.150;4.808;2022-07-29T03:24:34;0.98;;;0.20;;
41633;SDS011;37274;51.150;4.808;2022-07-29T03:27:02;0.10;;;0.10;;
41633;SDS011;37274;51.150;4.808;2022-07-29T03:29:30;0.22;;;0.10;;
41633;SDS011;37274;51.150;4.808;2022-07-29T03:31:59;0.43;;;0.30;;
41633;SDS011;37274;51.150;4.808;2022-07-29T03:34:33;1.48;;;0.20;;
41633;SDS011;37274;51.150;4.808;2022-07-29T03:37:01;0.98;;;0.35;;
41633;SDS011;37274;51.150;4.808;2022-07-29T03:39:29;0.68;;;0.20;;
41633;SDS011;37274;51.150;4.808;2022-07-29T03:41:59;0.70;;;0.30;;
41633;SDS011;37274;51.150;4.808;2022-07-29T03:44:26;0.57;;;0.22;;
41633;SDS011;37274;51.150;4.808;2022-07-29T03:46:54;0.95;;;0.20;;
41633;SDS011;37274;51.150;4.808;2022-07-29T03:49:22;0.88;;;0.38;;
41633;SDS011;37274;51.150;4.808;2022-07-29T03:51:50;0.30;;;0.20;;
41633;SDS011;37274;51.150;4.808;2022-07-29T03:54:16;0.80;;;0.20;;
41633;SDS011;37274;51.150;4.808;2022-07-29T03:56:45;1.00;;;0.40;;
41633;SDS011;37274;51.150;4.808;2022-07-29T03:59:14;0.77;;;0.20;;
41633;SDS011;37274;51.150;4.808;2022-07-29T04:01:41;1.80;;;0.20;;
41633;SDS011;37274;51.150;4.808;2022-07-29T04:04:09;0.47;;;0.30;;
41633;SDS011;37274;51.150;4.808;2022-07-29T04:06:39;2.28;;;0.30;;
41633;SDS011;37274;51.150;4.808;2022-07-29T04:09:11;0.75;;;0.20;;
41633;SDS011;37274;51.150;4.808;2022-07-29T04:11:38;2.63;;;0.30;;
41633;SDS011;37274;51.150;4.808;2022-07-29T04:14:26;1.63;;;0.22;;
41633;SDS011;37274;51.150;4.808;2022-07-29T04:16:53;0.32;;;0.20;;
41633;SDS011;37274;51.150;4.808;2022-07-29T04:19:19;0.75;;;0.22;;
41633;SDS011;37274;51.150;4.808;2022-07-29T04:21:46;3.85;;;0.40;;
41633;SDS011;37274;51.150;4.808;2022-07-29T04:24:13;1.05;;;0.35;;
41633;SDS011;37274;51.150;4.808;2022-07-29T04:26:40;0.55;;;0.20;;
41633;SDS011;37274;51.150;4.808;2022-07-29T04:29:07;0.60;;;0.30;;
41633;SDS011;37274;51.150;4.808;2022-07-29T04:31:34;0.50;;;0.30;;
41633;SDS011;37274;51.150;4.808;2022-07-29T04:34:01;0.63;;;0.30;;
41633;SDS011;37274;51.150;4.808;2022-07-29T04:36:27;0.85;;;0.40;;
41633;SDS011;37274;51.150;4.808;2022-07-29T04:38:55;1.35;;;0.30;;
41633;SDS011;37274;51.150;4.808;2022-07-29T04:41:22;1.30;;;0.30;;
41633;SDS011;37274;51.150;4.808;2022-07-29T04:43:58;0.55;;;0.22;;
41633;SDS011;37274;51.150;4.808;2022-07-29T04:46:27;1.48;;;0.20;;
41633;SDS011;37274;51.150;4.808;2022-07-29T04:48:54;0.90;;;0.20;;
41633;SDS011;37274;51.150;4.808;2022-07-29T04:51:21;1.75;;;0.30;;
41633;SDS011;37274;51.150;4.808;2022-07-29T04:53:47;0.20;;;0.20;;
41633;SDS011;37274;51.150;4.808;2022-07-29T04:56:14;1.60;;;0.20;;
41633;SDS011;37274;51.150;4.808;2022-07-29T04:58:41;0.32;;;0.20;;
41633;SDS011;37274;51.150;4.808;2022-07-29T05:01:07;0.25;;;0.10;;
41633;SDS011;37274;51.150;4.808;2022-07-29T05:03:34;0.65;;;0.32;;
41633;SDS011;37274;51.150;4.808;2022-07-29T05:06:01;0.30;;;0.30;;
41633;SDS011;37274;51.150;4.808;2022-07-29T05:08:28;0.73;;;0.63;;
41633;SDS011;37274;51.150;4.808;2022-07-29T05:10:54;2.17;;;0.57;;
41633;SDS011;37274;51.150;4.808;2022-07-29T05:13:21;0.85;;;0.20;;
41633;SDS011;37274;51.150;4.808;2022-07-29T05:15:48;0.30;;;0.20;;
41633;SDS011;37274;51.150;4.808;2022-07-29T05:18:15;5.72;;;0.60;;
41633;SDS011;37274;51.150;4.808;2022-07-29T05:20:42;7.25;;;1.05;;
41633;SDS011;37274;51.150;4.808;2022-07-29T05:23:08;2.92;;;0.47;;
41633;SDS011;37274;51.150;4.808;2022-07-29T05:25:35;4.55;;;0.60;;
41633;SDS011;37274;51.150;4.808;2022-07-29T05:28:09;6.00;;;0.88;;
41633;SDS011;37274;51.150;4.808;2022-07-29T05:30:36;1.95;;;0.63;;
41633;SDS011;37274;51.150;4.808;2022-07-29T05:33:03;6.75;;;0.88;;
41633;SDS011;37274;51.150;4.808;2022-07-29T05:35:30;6.65;;;1.20;;
41633;SDS011;37274;51.150;4.808;2022-07-29T05:37:57;1.85;;;0.98;;
41633;SDS011;37274;51.150;4.808;2022-07-29T05:40:23;2.20;;;0.65;;
41633;SDS011;37274;51.150;4.808;2022-07-29T05:42:50;9.75;;;1.05;;
41633;SDS011;37274;51.150;4.808;2022-07-29T05:45:17;6.00;;;1.08;;
41633;SDS011;37274;51.150;4.808;2022-07-29T05:47:44;4.55;;;1.00;;
41633;SDS011;37274;51.150;4.808;2022-07-29T05:50:11;5.50;;;1.15;;
41633;SDS011;37274;51.150;4.808;2022-07-29T05:52:38;5.28;;;0.95;;
41633;SDS011;37274;51.150;4.808;2022-07-29T05:55:05;7.60;;;1.23;;
41633;SDS011;37274;51.150;4.808;2022-07-29T05:57:32;6.25;;;1.13;;
41633;SDS011;37274;51.150;4.808;2022-07-29T05:59:59;6.10;;;0.77;;
41633;SDS011;37274;51.150;4.808;2022-07-29T06:02:26;5.53;;;0.80;;
41633;SDS011;37274;51.150;4.808;2022-07-29T06:04:53;2.25;;;0.85;;
41633;SDS011;37274;51.150;4.808;2022-07-29T06:07:20;5.13;;;0.80;;
41633;SDS011;37274;51.150;4.808;2022-07-29T06:09:47;4.60;;;1.05;;
41633;SDS011;37274;51.150;4.808;2022-07-29T06:12:13;6.63;;;1.23;;
41633;SDS011;37274;51.150;4.808;2022-07-29T06:14:40;1.25;;;0.80;;
41633;SDS011;37274;51.150;4.808;2022-07-29T06:17:07;3.95;;;1.00;;
41633;SDS011;37274;51.150;4.808;2022-07-29T06:19:34;2.97;;;0.75;;
41633;SDS011;37274;51.150;4.808;2022-07-29T06:22:01;1.90;;;0.70;;
41633;SDS011;37274;51.150;4.808;2022-07-29T06:24:28;2.20;;;0.63;;
41633;SDS011;37274;51.150;4.808;2022-07-29T06:26:55;3.08;;;0.77;;
41633;SDS011;37274;51.150;4.808;2022-07-29T06:29:22;2.50;;;0.75;;
41633;SDS011;37274;51.150;4.808;2022-07-29T06:31:49;5.68;;;3.08;;
41633;SDS011;37274;51.150;4.808;2022-07-29T06:34:15;4.30;;;1.00;;
41633;SDS011;37274;51.150;4.808;2022-07-29T06:36:43;1.92;;;1.33;;
41633;SDS011;37274;51.150;4.808;2022-07-29T06:39:11;6.60;;;1.50;;
41633;SDS011;37274;51.150;4.808;2022-07-29T06:41:38;2.83;;;0.73;;
41633;SDS011;37274;51.150;4.808;2022-07-29T06:44:04;2.28;;;0.85;;
41633;SDS011;37274;51.150;4.808;2022-07-29T06:46:31;3.85;;;0.52;;
41633;SDS011;37274;51.150;4.808;2022-07-29T06:48:59;2.40;;;0.63;;
41633;SDS011;37274;51.150;4.808;2022-07-29T06:51:28;1.50;;;0.43;;
41633;SDS011;37274;51.150;4.808;2022-07-29T06:53:54;0.45;;;0.40;;
41633;SDS011;37274;51.150;4.808;2022-07-29T06:56:29;0.70;;;0.32;;
41633;SDS011;37274;51.150;4.808;2022-07-29T06:59:05;2.35;;;0.30;;
41633;SDS011;37274;51.150;4.808;2022-07-29T07:01:32;0.40;;;0.35;;
41633;SDS011;37274;51.150;4.808;2022-07-29T07:03:59;1.30;;;0.30;;
41633;SDS011;37274;51.150;4.808;2022-07-29T07:06:26;2.00;;;0.35;;
41633;SDS011;37274;51.150;4.808;2022-07-29T07:08:52;0.82;;;0.55;;
41633;SDS011;37274;51.150;4.808;2022-07-29T07:11:19;2.42;;;0.47;;
41633;SDS011;37274;51.150;4.808;2022-07-29T07:13:46;2.85;;;0.45;;
41633;SDS011;37274;51.150;4.808;2022-07-29T07:16:12;0.63;;;0.20;;
41633;SDS011;37274;51.150;4.808;2022-07-29T07:18:39;1.65;;;0.50;;
41633;SDS011;37274;51.150;4.808;2022-07-29T07:21:06;0.43;;;0.38;;
41633;SDS011;37274;51.150;4.808;2022-07-29T07:23:33;0.50;;;0.25;;
41633;SDS011;37274;51.150;4.808;2022-07-29T07:26:00;0.60;;;0.32;;
41633;SDS011;37274;51.150;4.808;2022-07-29T07:28:27;3.80;;;0.43;;
41633;SDS011;37274;51.150;4.808;2022-07-29T07:30:53;0.38;;;0.32;;
41633;SDS011;37274;51.150;4.808;2022-07-29T07:33:20;1.55;;;0.30;;
41633;SDS011;37274;51.150;4.808;2022-07-29T07:35:47;0.80;;;0.20;;
41633;SDS011;37274;51.150;4.808;2022-07-29T07:38:13;0.50;;;0.30;;
41633;SDS011;37274;51.150;4.808;2022-07-29T07:40:40;0.60;;;0.20;;
41633;SDS011;37274;51.150;4.808;2022-07-29T07:43:07;3.72;;;0.47;;
41633;SDS011;37274;51.150;4.808;2022-07-29T07:45:34;0.32;;;0.30;;
41633;SDS011;37274;51.150;4.808;2022-07-29T07:48:04;0.80;;;0.38;;
41633;SDS011;37274;51.150;4.808;2022-07-29T07:50:31;1.70;;;0.28;;
41633;SDS011;37274;51.150;4.808;2022-07-29T07:52:58;0.43;;;0.30;;
41633;SDS011;37274;51.150;4.808;2022-07-29T07:55:25;2.92;;;0.30;;
41633;SDS011;37274;51.150;4.808;2022-07-29T07:57:53;0.32;;;0.22;;
41633;SDS011;37274;51.150;4.808;2022-07-29T08:00:20;0.55;;;0.30;;
41633;SDS011;37274;51.150;4.808;2022-07-29T08:02:48;0.63;;;0.30;;
41633;SDS011;37274;51.150;4.808;2022-07-29T08:05:16;0.32;;;0.30;;
41633;SDS011;37274;51.150;4.808;2022-07-29T08:07:44;1.13;;;0.40;;
41633;SDS011;37274;51.150;4.808;2022-07-29T08:10:15;1.02;;;0.63;;
41633;SDS011;37274;51.150;4.808;2022-07-29T08:13:03;0.30;;;0.22;;
41633;SDS011;37274;51.150;4.808;2022-07-29T08:15:31;1.15;;;0.47;;
41633;SDS011;37274;51.150;4.808;2022-07-29T08:17:58;0.45;;;0.20;;
41633;SDS011;37274;51.150;4.808;2022-07-29T08:20:31;2.20;;;0.30;;
41633;SDS011;37274;51.150;4.808;2022-07-29T08:22:59;0.55;;;0.30;;
41633;SDS011;37274;51.150;4.808;2022-07-29T08:25:26;0.40;;;0.20;;
41633;SDS011;37274;51.150;4.808;2022-07-29T08:27:54;1.73;;;0.50;;
41633;SDS011;37274;51.150;4.808;2022-07-29T08:30:20;1.08;;;0.35;;
41633;SDS011;37274;51.150;4.808;2022-07-29T08:32:48;0.70;;;0.40;;
41633;SDS011;37274;51.150;4.808;2022-07-29T08:35:20;1.17;;;0.45;;
41633;SDS011;37274;51.150;4.808;2022-07-29T08:37:47;1.85;;;0.28;;
41633;SDS011;37274;51.150;4.808;2022-07-29T08:40:14;0.55;;;0.20;;
41633;SDS011;37274;51.150;4.808;2022-07-29T08:42:41;0.63;;;0.28;;
41633;SDS011;37274;51.150;4.808;2022-07-29T08:45:08;0.32;;;0.20;;
41633;SDS011;37274;51.150;4.808;2022-07-29T08:47:35;2.35;;;0.45;;
41633;SDS011;37274;51.150;4.808;2022-07-29T08:50:06;1.13;;;0.35;;
41633;SDS011;37274;51.150;4.808;2022-07-29T08:52:37;2.42;;;0.70;;
41633;SDS011;37274;51.150;4.808;2022-07-29T08:55:06;0.57;;;0.52;;
41633;SDS011;37274;51.150;4.808;2022-07-29T08:57:35;0.30;;;0.20;;
41633;SDS011;37274;51.150;4.808;2022-07-29T09:00:04;0.40;;;0.30;;
41633;SDS011;37274;51.150;4.808;2022-07-29T09:02:40;1.00;;;0.40;;
41633;SDS011;37274;51.150;4.808;2022-07-29T09:05:11;0.75;;;0.25;;
41633;SDS011;37274;51.150;4.808;2022-07-29T09:07:38;0.32;;;0.20;;
41633;SDS011;37274;51.150;4.808;2022-07-29T09:10:05;0.75;;;0.40;;
41633;SDS011;37274;51.150;4.808;2022-07-29T09:12:32;1.38;;;0.30;;
41633;SDS011;37274;51.150;4.808;2022-07-29T09:15:03;0.20;;;0.20;;
41633;SDS011;37274;51.150;4.808;2022-07-29T09:17:48;1.17;;;0.30;;
41633;SDS011;37274;51.150;4.808;2022-07-29T09:20:22;0.20;;;0.20;;
41633;SDS011;37274;51.150;4.808;2022-07-29T09:22:49;0.20;;;0.20;;
41633;SDS011;37274;51.150;4.808;2022-07-29T09:25:34;0.63;;;0.32;;
41633;SDS011;37274;51.150;4.808;2022-07-29T09:28:09;1.10;;;0.30;;
41633;SDS011;37274;51.150;4.808;2022-07-29T09:33:22;0.57;;;0.22;;
41633;SDS011;37274;51.150;4.808;2022-07-29T09:36:02;0.63;;;0.30;;
41633;SDS011;37274;51.150;4.808;2022-07-29T09:38:31;0.30;;;0.20;;
41633;SDS011;37274;51.150;4.808;2022-07-29T09:41:00;1.33;;;0.30;;
41633;SDS011;37274;51.150;4.808;2022-07-29T09:43:31;1.38;;;0.22;;
41633;SDS011;37274;51.150;4.808;2022-07-29T09:46:32;1.52;;;0.38;;
41633;SDS011;37274;51.150;4.808;2022-07-29T09:49:07;0.50;;;0.40;;
41633;SDS011;37274;51.150;4.808;2022-07-29T09:51:39;0.95;;;0.50;;
41633;SDS011;37274;51.150;4.808;2022-07-29T09:54:25;0.38;;;0.20;;
41633;SDS011;37274;51.150;4.808;2022-07-29T09:56:54;1.17;;;0.43;;
41633;SDS011;37274;51.150;4.808;2022-07-29T09:59:22;0.57;;;0.40;;
41633;SDS011;37274;51.150;4.808;2022-07-29T10:01:52;1.27;;;0.35;;
41633;SDS011;37274;51.150;4.808;2022-07-29T10:04:20;1.45;;;0.25;;
41633;SDS011;37274;51.150;4.808;2022-07-29T10:07:00;0.50;;;0.20;;
41633;SDS011;37274;51.150;4.808;2022-07-29T10:09:31;0.45;;;0.45;;
41633;SDS011;37274;51.150;4.808;2022-07-29T10:12:11;0.20;;;0.20;;
41633;SDS011;37274;51.150;4.808;2022-07-29T10:14:41;0.70;;;0.20;;
41633;SDS011;37274;51.150;4.808;2022-07-29T10:17:09;0.93;;;0.57;;
41633;SDS011;37274;51.150;4.808;2022-07-29T10:19:37;1.25;;;0.50;;
41633;SDS011;37274;51.150;4.808;2022-07-29T10:22:07;1.00;;;0.40;;
41633;SDS011;37274;51.150;4.808;2022-07-29T10:24:36;0.50;;;0.22;;
41633;SDS011;37274;51.150;4.808;2022-07-29T10:27:05;0.47;;;0.35;;
41633;SDS011;37274;51.150;4.808;2022-07-29T10:29:33;1.40;;;0.30;;
41633;SDS011;37274;51.150;4.808;2022-07-29T10:37:52;0.50;;;0.50;;
41633;SDS011;37274;51.150;4.808;2022-07-29T10:43:35;0.65;;;0.30;;
41633;SDS011;37274;51.150;4.808;2022-07-29T10:46:07;2.13;;;0.52;;
41633;SDS011;37274;51.150;4.808;2022-07-29T10:48:35;0.32;;;0.32;;
41633;SDS011;37274;51.150;4.808;2022-07-29T10:54:17;1.27;;;0.40;;
41633;SDS011;37274;51.150;4.808;2022-07-29T10:56:45;1.48;;;0.45;;
41633;SDS011;37274;51.150;4.808;2022-07-29T11:02:01;0.73;;;0.55;;
41633;SDS011;37274;51.150;4.808;2022-07-29T11:07:15;1.85;;;0.50;;
41633;SDS011;37274;51.150;4.808;2022-07-29T11:09:42;1.38;;;0.73;;
41633;SDS011;37274;51.150;4.808;2022-07-29T11:15:05;1.52;;;0.77;;
41633;SDS011;37274;51.150;4.808;2022-07-29T11:29:03;1.77;;;0.70;;
41633;SDS011;37274;51.150;4.808;2022-07-29T11:31:38;2.38;;;0.73;;
41633;SDS011;37274;51.150;4.808;2022-07-29T11:34:18;1.65;;;0.50;;
41633;SDS011;37274;51.150;4.808;2022-07-29T11:37:33;1.88;;;0.70;;
41633;SDS011;37274;51.150;4.808;2022-07-29T11:39:42;0.75;;;0.55;;
41633;SDS011;37274;51.150;4.808;2022-07-29T11:44:58;2.35;;;0.77;;
41633;SDS011;37274;51.150;4.808;2022-07-29T11:47:34;4.18;;;0.68;;
41633;SDS011;37274;51.150;4.808;2022-07-29T11:50:05;1.63;;;0.55;;
41633;SDS011;37274;51.150;4.808;2022-07-29T11:52:38;1.30;;;0.40;;
41633;SDS011;37274;51.150;4.808;2022-07-29T11:55:16;0.40;;;0.32;;
41633;SDS011;37274;51.150;4.808;2022-07-29T11:57:48;0.93;;;0.52;;
41633;SDS011;37274;51.150;4.808;2022-07-29T12:00:35;3.35;;;0.73;;
41633;SDS011;37274;51.150;4.808;2022-07-29T12:03:07;2.15;;;0.50;;
41633;SDS011;37274;51.150;4.808;2022-07-29T12:05:37;2.22;;;0.73;;
41633;SDS011;37274;51.150;4.808;2022-07-29T12:08:20;1.33;;;0.60;;
41633;SDS011;37274;51.150;4.808;2022-07-29T12:10:48;2.20;;;0.30;;
41633;SDS011;37274;51.150;4.808;2022-07-29T12:13:18;1.20;;;0.60;;
41633;SDS011;37274;51.150;4.808;2022-07-29T12:15:53;0.98;;;0.75;;
41633;SDS011;37274;51.150;4.808;2022-07-29T12:18:25;1.13;;;0.47;;
41633;SDS011;37274;51.150;4.808;2022-07-29T12:20:56;2.60;;;0.50;;
41633;SDS011;37274;51.150;4.808;2022-07-29T12:23:29;2.70;;;0.40;;
41633;SDS011;37274;51.150;4.808;2022-07-29T12:26:00;1.40;;;0.63;;
41633;SDS011;37274;51.150;4.808;2022-07-29T12:28:27;3.70;;;1.00;;
41633;SDS011;37274;51.150;4.808;2022-07-29T12:30:56;3.33;;;0.70;;
41633;SDS011;37274;51.150;4.808;2022-07-29T12:33:26;0.93;;;0.65;;
41633;SDS011;37274;51.150;4.808;2022-07-29T12:35:59;1.67;;;0.60;;
41633;SDS011;37274;51.150;4.808;2022-07-29T12:38:36;0.90;;;0.50;;
41633;SDS011;37274;51.150;4.808;2022-07-29T12:41:03;2.88;;;0.60;;
41633;SDS011;37274;51.150;4.808;2022-07-29T12:43:30;0.70;;;0.43;;
41633;SDS011;37274;51.150;4.808;2022-07-29T12:45:57;0.40;;;0.32;;
41633;SDS011;37274;51.150;4.808;2022-07-29T12:48:36;0.80;;;0.40;;
41633;SDS011;37274;51.150;4.808;2022-07-29T12:51:05;0.40;;;0.40;;
41633;SDS011;37274;51.150;4.808;2022-07-29T12:53:33;0.30;;;0.30;;
41633;SDS011;37274;51.150;4.808;2022-07-29T12:56:01;1.98;;;0.40;;
41633;SDS011;37274;51.150;4.808;2022-07-29T12:58:46;0.77;;;0.52;;
41633;SDS011;37274;51.150;4.808;2022-07-29T13:01:16;2.33;;;0.38;;
41633;SDS011;37274;51.150;4.808;2022-07-29T13:06:28;0.73;;;0.32;;
41633;SDS011;37274;51.150;4.808;2022-07-29T13:08:58;0.57;;;0.50;;
41633;SDS011;37274;51.150;4.808;2022-07-29T13:11:35;1.10;;;0.38;;
41633;SDS011;37274;51.150;4.808;2022-07-29T13:14:05;1.30;;;0.40;;
41633;SDS011;37274;51.150;4.808;2022-07-29T13:16:32;0.82;;;0.43;;
41633;SDS011;37274;51.150;4.808;2022-07-29T13:19:03;1.35;;;0.40;;
41633;SDS011;37274;51.150;4.808;2022-07-29T13:21:30;1.42;;;0.50;;
41633;SDS011;37274;51.150;4.808;2022-07-29T13:23:57;1.05;;;0.30;;
41633;SDS011;37274;51.150;4.808;2022-07-29T13:26:23;1.30;;;0.45;;
41633;SDS011;37274;51.150;4.808;2022-07-29T13:28:50;0.52;;;0.30;;
41633;SDS011;37274;51.150;4.808;2022-07-29T13:31:17;0.70;;;0.40;;
41633;SDS011;37274;51.150;4.808;2022-07-29T13:33:44;0.98;;;0.40;;
41633;SDS011;37274;51.150;4.808;2022-07-29T13:36:10;1.10;;;0.38;;
41633;SDS011;37274;51.150;4.808;2022-07-29T13:38:37;0.90;;;0.40;;
41633;SDS011;37274;51.150;4.808;2022-07-29T13:41:04;0.38;;;0.35;;
41633;SDS011;37274;51.150;4.808;2022-07-29T13:43:31;1.63;;;0.70;;
41633;SDS011;37274;51.150;4.808;2022-07-29T13:45:57;0.40;;;0.40;;
41633;SDS011;37274;51.150;4.808;2022-07-29T13:48:24;0.30;;;0.30;;
41633;SDS011;37274;51.150;4.808;2022-07-29T13:50:51;0.47;;;0.30;;
41633;SDS011;37274;51.150;4.808;2022-07-29T13:53:18;0.57;;;0.30;;
41633;SDS011;37274;51.150;4.808;2022-07-29T13:55:52;0.40;;;0.30;;
41633;SDS011;37274;51.150;4.808;2022-07-29T13:58:19;0.30;;;0.30;;
41633;SDS011;37274;51.150;4.808;2022-07-29T14:00:46;0.30;;;0.30;;
41633;SDS011;37274;51.150;4.808;2022-07-29T14:03:12;0.40;;;0.40;;
41633;SDS011;37274;51.150;4.808;2022-07-29T14:05:39;2.10;;;0.63;;
41633;SDS011;37274;51.150;4.808;2022-07-29T14:08:06;1.67;;;0.52;;
41633;SDS011;37274;51.150;4.808;2022-07-29T14:10:33;1.08;;;0.50;;
41633;SDS011;37274;51.150;4.808;2022-07-29T14:12:59;0.40;;;0.40;;
41633;SDS011;37274;51.150;4.808;2022-07-29T14:15:26;1.55;;;0.65;;
41633;SDS011;37274;51.150;4.808;2022-07-29T14:17:53;1.70;;;0.80;;
41633;SDS011;37274;51.150;4.808;2022-07-29T14:20:19;0.95;;;0.60;;
41633;SDS011;37274;51.150;4.808;2022-07-29T14:22:46;2.60;;;0.60;;
41633;SDS011;37274;51.150;4.808;2022-07-29T14:25:13;1.88;;;0.70;;
41633;SDS011;37274;51.150;4.808;2022-07-29T14:27:41;2.50;;;0.70;;
41633;SDS011;37274;51.150;4.808;2022-07-29T14:30:09;1.83;;;0.65;;
41633;SDS011;37274;51.150;4.808;2022-07-29T14:32:36;3.00;;;0.60;;
41633;SDS011;37274;51.150;4.808;2022-07-29T14:35:03;2.63;;;0.85;;
41633;SDS011;37274;51.150;4.808;2022-07-29T14:37:30;1.60;;;0.85;;
41633;SDS011;37274;51.150;4.808;2022-07-29T14:40:05;1.20;;;0.80;;
41633;SDS011;37274;51.150;4.808;2022-07-29T14:42:32;1.88;;;1.38;;
41633;SDS011;37274;51.150;4.808;2022-07-29T14:44:59;2.55;;;1.75;;
41633;SDS011;37274;51.150;4.808;2022-07-29T14:47:25;5.82;;;2.35;;
41633;SDS011;37274;51.150;4.808;2022-07-29T14:49:52;11.55;;;8.02;;
41633;SDS011;37274;51.150;4.808;2022-07-29T14:52:19;14.90;;;8.63;;
41633;SDS011;37274;51.150;4.808;2022-07-29T14:54:46;19.48;;;10.55;;
41633;SDS011;37274;51.150;4.808;2022-07-29T14:57:12;16.40;;;9.85;;
41633;SDS011;37274;51.150;4.808;2022-07-29T14:59:39;16.92;;;10.15;;
41633;SDS011;37274;51.150;4.808;2022-07-29T15:02:06;12.80;;;6.32;;
41633;SDS011;37274;51.150;4.808;2022-07-29T15:04:33;8.93;;;3.60;;
41633;SDS011;37274;51.150;4.808;2022-07-29T15:06:59;10.48;;;4.07;;
41633;SDS011;37274;51.150;4.808;2022-07-29T15:09:26;5.72;;;3.08;;
41633;SDS011;37274;51.150;4.808;2022-07-29T15:11:53;5.45;;;1.90;;
41633;SDS011;37274;51.150;4.808;2022-07-29T15:14:20;5.47;;;3.15;;
41633;SDS011;37274;51.150;4.808;2022-07-29T15:16:47;3.78;;;1.95;;
41633;SDS011;37274;51.150;4.808;2022-07-29T15:19:14;3.45;;;2.00;;
41633;SDS011;37274;51.150;4.808;2022-07-29T15:21:40;2.83;;;2.20;;
41633;SDS011;37274;51.150;4.808;2022-07-29T15:24:14;2.80;;;2.03;;
41633;SDS011;37274;51.150;4.808;2022-07-29T15:26:44;2.20;;;1.80;;
41633;SDS011;37274;51.150;4.808;2022-07-29T15:29:11;3.17;;;1.90;;
41633;SDS011;37274;51.150;4.808;2022-07-29T15:31:38;3.45;;;1.80;;
41633;SDS011;37274;51.150;4.808;2022-07-29T15:34:06;6.13;;;2.20;;
41633;SDS011;37274;51.150;4.808;2022-07-29T15:36:33;1.80;;;1.52;;
41633;SDS011;37274;51.150;4.808;2022-07-29T15:39:19;4.38;;;1.38;;
41633;SDS011;37274;51.150;4.808;2022-07-29T15:41:46;1.40;;;1.30;;
41633;SDS011;37274;51.150;4.808;2022-07-29T15:44:13;3.70;;;1.23;;
41633;SDS011;37274;51.150;4.808;2022-07-29T15:46:39;5.20;;;1.63;;
41633;SDS011;37274;51.150;4.808;2022-07-29T15:49:26;2.40;;;1.33;;
41633;SDS011;37274;51.150;4.808;2022-07-29T15:52:14;2.53;;;1.30;;
41633;SDS011;37274;51.150;4.808;2022-07-29T15:54:52;2.42;;;1.27;;
41633;SDS011;37274;51.150;4.808;2022-07-29T15:57:20;3.03;;;0.95;;
41633;SDS011;37274;51.150;4.808;2022-07-29T15:59:47;2.28;;;1.52;;